sensor_id;sensor_type;location;lat;lon;timestamp;temperature;humidity
48206;DHT22;33995;48.202;16.260;2023-02-25T00:01:37;9.90;99.90
48206;DHT22;33995;48.202;16.260;2023-02-25T00:04:04;9.90;99.90
48206;DHT22;33995;48.202;16.260;2023-02-25T00:06:31;9.80;99.90
48206;DHT22;33995;48.202;16.260;2023-02-25T00:08:58;9.80;99.90
48206;DHT22;33995;48.202;16.260;2023-02-25T00:11:26;9.90;99.90
48206;DHT22;33995;48.202;16.260;2023-02-25T00:13:54;10.00;99.90
48206;DHT22;33995;48.202;16.260;2023-02-25T00:16:22;10.00;99.90
48206;DHT22;33995;48.202;16.260;2023-02-25T00:18:57;9.90;99.90
48206;DHT22;33995;48.202;16.260;2023-02-25T00:21:24;9.90;99.90
48206;DHT22;33995;48.202;16.260;2023-02-25T00:23:52;9.90;99.90
48206;DHT22;33995;48.202;16.260;2023-02-25T00:26:20;9.80;99.90
48206;DHT22;33995;48.202;16.260;2023-02-25T00:28:48;9.80;99.90
48206;DHT22;33995;48.202;16.260;2023-02-25T00:31:19;9.80;99.90
48206;DHT22;33995;48.202;16.260;2023-02-25T00:33:47;9.80;99.90
48206;DHT22;33995;48.202;16.260;2023-02-25T00:36:23;9.70;99.90
48206;DHT22;33995;48.202;16.260;2023-02-25T00:38:53;9.60;99.90
48206;DHT22;33995;48.202;16.260;2023-02-25T00:41:28;9.60;99.90
48206;DHT22;33995;48.202;16.260;2023-02-25T00:43:59;9.50;99.90
48206;DHT22;33995;48.202;16.260;2023-02-25T00:46:28;9.50;99.90
48206;DHT22;33995;48.202;16.260;2023-02-25T00:48:55;9.40;99.90
48206;DHT22;33995;48.202;16.260;2023-02-25T00:51:25;9.30;99.90
48206;DHT22;33995;48.202;16.260;2023-02-25T00:53:54;9.30;99.90
48206;DHT22;33995;48.202;16.260;2023-02-25T00:56:23;9.20;99.90
48206;DHT22;33995;48.202;16.260;2023-02-25T00:58:51;9.10;99.90
48206;DHT22;33995;48.202;16.260;2023-02-25T01:01:30;9.10;99.90
48206;DHT22;33995;48.202;16.260;2023-02-25T01:03:59;9.10;99.90
48206;DHT22;33995;48.202;16.260;2023-02-25T01:06:28;9.00;99.90
48206;DHT22;33995;48.202;16.260;2023-02-25T01:08:57;8.90;99.90
48206;DHT22;33995;48.202;16.260;2023-02-25T01:11:29;8.90;99.90
48206;DHT22;33995;48.202;16.260;2023-02-25T01:13:59;8.90;99.90
48206;DHT22;33995;48.202;16.260;2023-02-25T01:16:28;8.60;99.90
48206;DHT22;33995;48.202;16.260;2023-02-25T01:18:58;8.60;99.90
48206;DHT22;33995;48.202;16.260;2023-02-25T01:21:28;8.70;99.90
48206;DHT22;33995;48.202;16.260;2023-02-25T01:24:00;8.50;99.90
48206;DHT22;33995;48.202;16.260;2023-02-25T01:26:29;8.50;99.90
48206;DHT22;33995;48.202;16.260;2023-02-25T01:28:57;8.50;99.90
48206;DHT22;33995;48.202;16.260;2023-02-25T01:31:26;8.40;99.90
48206;DHT22;33995;48.202;16.260;2023-02-25T01:33:58;8.40;99.90
48206;DHT22;33995;48.202;16.260;2023-02-25T01:36:27;8.20;99.90
48206;DHT22;33995;48.202;16.260;2023-02-25T01:39:00;7.90;99.90
48206;DHT22;33995;48.202;16.260;2023-02-25T01:41:30;7.90;99.90
48206;DHT22;33995;48.202;16.260;2023-02-25T01:44:13;7.90;99.90
48206;DHT22;33995;48.202;16.260;2023-02-25T01:46:42;7.90;99.90
48206;DHT22;33995;48.202;16.260;2023-02-25T01:49:35;7.70;99.90
48206;DHT22;33995;48.202;16.260;2023-02-25T01:52:10;7.70;99.90
48206;DHT22;33995;48.202;16.260;2023-02-25T01:54:39;7.70;99.90
48206;DHT22;33995;48.202;16.260;2023-02-25T01:57:12;7.60;99.90
48206;DHT22;33995;48.202;16.260;2023-02-25T01:59:41;7.40;99.90
48206;DHT22;33995;48.202;16.260;2023-02-25T02:02:10;7.20;99.90
48206;DHT22;33995;48.202;16.260;2023-02-25T02:04:40;7.10;99.90
48206;DHT22;33995;48.202;16.260;2023-02-25T02:07:09;7.00;99.90
48206;DHT22;33995;48.202;16.260;2023-02-25T02:09:36;7.00;99.90
48206;DHT22;33995;48.202;16.260;2023-02-25T02:12:06;7.00;99.90
48206;DHT22;33995;48.202;16.260;2023-02-25T02:14:39;7.00;99.90
48206;DHT22;33995;48.202;16.260;2023-02-25T02:17:49;7.00;99.90
48206;DHT22;33995;48.202;16.260;2023-02-25T02:20:25;6.90;99.90
48206;DHT22;33995;48.202;16.260;2023-02-25T02:29:15;6.70;99.90
48206;DHT22;33995;48.202;16.260;2023-02-25T02:32:13;6.70;99.90
48206;DHT22;33995;48.202;16.260;2023-02-25T02:35:07;6.70;99.90
48206;DHT22;33995;48.202;16.260;2023-02-25T02:40:23;6.80;99.90
48206;DHT22;33995;48.202;16.260;2023-02-25T02:43:07;6.80;99.90
48206;DHT22;33995;48.202;16.260;2023-02-25T02:45:45;6.60;99.90
48206;DHT22;33995;48.202;16.260;2023-02-25T02:48:31;6.70;99.90
48206;DHT22;33995;48.202;16.260;2023-02-25T02:51:01;6.50;99.90
48206;DHT22;33995;48.202;16.260;2023-02-25T02:53:45;6.50;99.90
48206;DHT22;33995;48.202;16.260;2023-02-25T02:56:16;6.50;99.90
48206;DHT22;33995;48.202;16.260;2023-02-25T02:58:56;6.50;99.90
48206;DHT22;33995;48.202;16.260;2023-02-25T03:01:43;6.50;99.90
48206;DHT22;33995;48.202;16.260;2023-02-25T03:04:18;6.50;99.90
48206;DHT22;33995;48.202;16.260;2023-02-25T03:06:55;6.30;99.90
48206;DHT22;33995;48.202;16.260;2023-02-25T03:09:28;6.30;99.90
48206;DHT22;33995;48.202;16.260;2023-02-25T03:11:57;6.30;99.90
48206;DHT22;33995;48.202;16.260;2023-02-25T03:14:24;6.20;99.90
48206;DHT22;33995;48.202;16.260;2023-02-25T03:16:59;6.10;99.90
48206;DHT22;33995;48.202;16.260;2023-02-25T03:19:43;6.00;99.90
48206;DHT22;33995;48.202;16.260;2023-02-25T03:22:19;5.80;99.90
48206;DHT22;33995;48.202;16.260;2023-02-25T03:24:54;5.80;99.90
48206;DHT22;33995;48.202;16.260;2023-02-25T03:27:33;5.60;99.90
48206;DHT22;33995;48.202;16.260;2023-02-25T03:30:11;5.70;99.90
48206;DHT22;33995;48.202;16.260;2023-02-25T03:32:47;5.70;99.90
48206;DHT22;33995;48.202;16.260;2023-02-25T03:35:19;5.70;99.90
48206;DHT22;33995;48.202;16.260;2023-02-25T03:37:50;5.60;99.90
48206;DHT22;33995;48.202;16.260;2023-02-25T03:40:18;5.40;99.90
48206;DHT22;33995;48.202;16.260;2023-02-25T03:43:03;5.30;99.90
48206;DHT22;33995;48.202;16.260;2023-02-25T03:45:42;5.40;99.90
48206;DHT22;33995;48.202;16.260;2023-02-25T03:48:13;5.30;99.90
48206;DHT22;33995;48.202;16.260;2023-02-25T03:50:46;5.20;99.90
48206;DHT22;33995;48.202;16.260;2023-02-25T03:53:14;5.30;99.90
48206;DHT22;33995;48.202;16.260;2023-02-25T03:55:48;5.50;99.90
48206;DHT22;33995;48.202;16.260;2023-02-25T03:58:15;5.50;99.90
48206;DHT22;33995;48.202;16.260;2023-02-25T04:00:45;5.50;99.90
48206;DHT22;33995;48.202;16.260;2023-02-25T04:03:15;5.40;99.90
48206;DHT22;33995;48.202;16.260;2023-02-25T04:05:42;5.50;99.90
48206;DHT22;33995;48.202;16.260;2023-02-25T04:08:10;5.40;99.90
48206;DHT22;33995;48.202;16.260;2023-02-25T04:10:45;5.40;99.90
48206;DHT22;33995;48.202;16.260;2023-02-25T04:13:15;5.40;99.90
48206;DHT22;33995;48.202;16.260;2023-02-25T04:15:43;5.20;99.90
48206;DHT22;33995;48.202;16.260;2023-02-25T04:18:11;5.20;99.90
48206;DHT22;33995;48.202;16.260;2023-02-25T04:20:39;5.20;99.90
48206;DHT22;33995;48.202;16.260;2023-02-25T04:23:10;5.20;99.90
48206;DHT22;33995;48.202;16.260;2023-02-25T04:25:38;4.90;99.90
48206;DHT22;33995;48.202;16.260;2023-02-25T04:28:06;5.00;99.90
48206;DHT22;33995;48.202;16.260;2023-02-25T04:30:35;5.00;99.90
48206;DHT22;33995;48.202;16.260;2023-02-25T04:33:03;4.90;99.90
48206;DHT22;33995;48.202;16.260;2023-02-25T04:35:33;4.80;99.90
48206;DHT22;33995;48.202;16.260;2023-02-25T04:38:00;5.00;99.90
48206;DHT22;33995;48.202;16.260;2023-02-25T04:40:30;5.00;99.90
48206;DHT22;33995;48.202;16.260;2023-02-25T04:43:01;5.00;99.90
48206;DHT22;33995;48.202;16.260;2023-02-25T04:45:28;4.90;99.90
48206;DHT22;33995;48.202;16.260;2023-02-25T04:47:56;4.90;99.90
48206;DHT22;33995;48.202;16.260;2023-02-25T04:50:28;4.90;99.90
48206;DHT22;33995;48.202;16.260;2023-02-25T04:52:59;4.70;99.90
48206;DHT22;33995;48.202;16.260;2023-02-25T04:55:29;4.70;99.90
48206;DHT22;33995;48.202;16.260;2023-02-25T04:57:56;4.70;99.90
48206;DHT22;33995;48.202;16.260;2023-02-25T05:00:23;4.60;99.90
48206;DHT22;33995;48.202;16.260;2023-02-25T05:02:54;4.70;99.90
48206;DHT22;33995;48.202;16.260;2023-02-25T05:05:21;4.70;99.90
48206;DHT22;33995;48.202;16.260;2023-02-25T05:07:49;4.70;99.90
48206;DHT22;33995;48.202;16.260;2023-02-25T05:10:15;4.60;99.90
48206;DHT22;33995;48.202;16.260;2023-02-25T05:12:46;4.60;99.90
48206;DHT22;33995;48.202;16.260;2023-02-25T05:15:13;4.60;99.90
48206;DHT22;33995;48.202;16.260;2023-02-25T05:17:40;4.60;99.90
48206;DHT22;33995;48.202;16.260;2023-02-25T05:20:08;4.50;99.90
48206;DHT22;33995;48.202;16.260;2023-02-25T05:22:40;4.50;99.90
48206;DHT22;33995;48.202;16.260;2023-02-25T05:25:08;4.50;99.90
48206;DHT22;33995;48.202;16.260;2023-02-25T05:27:36;4.50;99.90
48206;DHT22;33995;48.202;16.260;2023-02-25T05:30:07;4.50;99.90
48206;DHT22;33995;48.202;16.260;2023-02-25T05:32:37;4.50;99.90
48206;DHT22;33995;48.202;16.260;2023-02-25T05:35:08;4.40;99.90
48206;DHT22;33995;48.202;16.260;2023-02-25T05:37:36;4.40;99.90
48206;DHT22;33995;48.202;16.260;2023-02-25T05:40:04;4.50;99.90
48206;DHT22;33995;48.202;16.260;2023-02-25T05:42:32;4.50;99.90
48206;DHT22;33995;48.202;16.260;2023-02-25T05:44:59;4.40;99.90
48206;DHT22;33995;48.202;16.260;2023-02-25T05:47:26;4.50;99.90
48206;DHT22;33995;48.202;16.260;2023-02-25T05:49:55;4.50;99.90
48206;DHT22;33995;48.202;16.260;2023-02-25T05:52:22;4.50;99.90
48206;DHT22;33995;48.202;16.260;2023-02-25T05:54:52;4.50;99.90
48206;DHT22;33995;48.202;16.260;2023-02-25T05:57:19;4.50;99.90
48206;DHT22;33995;48.202;16.260;2023-02-25T05:59:46;4.50;99.90
48206;DHT22;33995;48.202;16.260;2023-02-25T06:02:13;4.50;99.90
48206;DHT22;33995;48.202;16.260;2023-02-25T06:04:40;4.40;99.90
48206;DHT22;33995;48.202;16.260;2023-02-25T06:07:07;4.50;99.90
48206;DHT22;33995;48.202;16.260;2023-02-25T06:09:37;4.50;99.90
48206;DHT22;33995;48.202;16.260;2023-02-25T06:12:04;4.60;99.90
48206;DHT22;33995;48.202;16.260;2023-02-25T06:14:32;4.50;99.90
48206;DHT22;33995;48.202;16.260;2023-02-25T06:17:02;4.50;99.90
48206;DHT22;33995;48.202;16.260;2023-02-25T06:19:29;4.50;99.90
48206;DHT22;33995;48.202;16.260;2023-02-25T06:21:56;4.50;99.90
48206;DHT22;33995;48.202;16.260;2023-02-25T06:24:24;4.50;99.90
48206;DHT22;33995;48.202;16.260;2023-02-25T06:26:51;4.50;99.90
48206;DHT22;33995;48.202;16.260;2023-02-25T06:29:18;4.50;99.90
48206;DHT22;33995;48.202;16.260;2023-02-25T06:31:45;4.50;99.90
48206;DHT22;33995;48.202;16.260;2023-02-25T06:34:12;4.50;99.90
48206;DHT22;33995;48.202;16.260;2023-02-25T06:36:39;4.60;99.90
48206;DHT22;33995;48.202;16.260;2023-02-25T06:39:07;4.60;99.90
48206;DHT22;33995;48.202;16.260;2023-02-25T06:41:34;4.60;99.90
48206;DHT22;33995;48.202;16.260;2023-02-25T06:44:01;4.60;99.90
48206;DHT22;33995;48.202;16.260;2023-02-25T06:46:30;4.70;99.90
48206;DHT22;33995;48.202;16.260;2023-02-25T06:48:57;4.70;99.90
48206;DHT22;33995;48.202;16.260;2023-02-25T06:51:24;4.60;99.90
48206;DHT22;33995;48.202;16.260;2023-02-25T06:53:51;4.80;99.90
48206;DHT22;33995;48.202;16.260;2023-02-25T06:56:19;4.90;99.90
48206;DHT22;33995;48.202;16.260;2023-02-25T06:58:48;5.00;99.90
48206;DHT22;33995;48.202;16.260;2023-02-25T07:01:18;5.20;99.90
48206;DHT22;33995;48.202;16.260;2023-02-25T07:03:45;5.10;99.90
48206;DHT22;33995;48.202;16.260;2023-02-25T07:06:12;5.10;99.90
48206;DHT22;33995;48.202;16.260;2023-02-25T07:08:44;5.30;99.90
48206;DHT22;33995;48.202;16.260;2023-02-25T07:13:48;5.60;99.90
48206;DHT22;33995;48.202;16.260;2023-02-25T07:16:16;5.80;99.90
48206;DHT22;33995;48.202;16.260;2023-02-25T07:18:45;5.70;99.90
48206;DHT22;33995;48.202;16.260;2023-02-25T07:21:12;5.70;99.90
48206;DHT22;33995;48.202;16.260;2023-02-25T07:23:40;5.70;99.90
48206;DHT22;33995;48.202;16.260;2023-02-25T07:26:11;5.70;99.90
48206;DHT22;33995;48.202;16.260;2023-02-25T07:28:38;5.80;99.90
48206;DHT22;33995;48.202;16.260;2023-02-25T07:31:14;6.00;99.90
48206;DHT22;33995;48.202;16.260;2023-02-25T07:33:42;6.30;99.90
48206;DHT22;33995;48.202;16.260;2023-02-25T07:36:10;6.40;99.90
48206;DHT22;33995;48.202;16.260;2023-02-25T07:38:38;6.50;99.90
48206;DHT22;33995;48.202;16.260;2023-02-25T07:41:07;6.60;99.90
48206;DHT22;33995;48.202;16.260;2023-02-25T07:43:35;6.80;99.90
48206;DHT22;33995;48.202;16.260;2023-02-25T07:46:02;7.10;99.90
48206;DHT22;33995;48.202;16.260;2023-02-25T07:48:30;7.30;99.90
48206;DHT22;33995;48.202;16.260;2023-02-25T07:51:04;7.10;99.90
48206;DHT22;33995;48.202;16.260;2023-02-25T07:53:31;7.40;99.90
48206;DHT22;33995;48.202;16.260;2023-02-25T07:56:00;7.40;99.90
48206;DHT22;33995;48.202;16.260;2023-02-25T07:58:27;7.40;99.90
48206;DHT22;33995;48.202;16.260;2023-02-25T08:00:54;7.50;99.90
48206;DHT22;33995;48.202;16.260;2023-02-25T08:03:21;7.70;99.90
48206;DHT22;33995;48.202;16.260;2023-02-25T08:05:52;7.50;99.90
48206;DHT22;33995;48.202;16.260;2023-02-25T08:08:21;7.70;99.90
48206;DHT22;33995;48.202;16.260;2023-02-25T08:10:48;7.80;99.90
48206;DHT22;33995;48.202;16.260;2023-02-25T08:13:15;8.00;99.90
48206;DHT22;33995;48.202;16.260;2023-02-25T08:15:42;8.20;99.90
48206;DHT22;33995;48.202;16.260;2023-02-25T08:18:10;8.00;99.90
48206;DHT22;33995;48.202;16.260;2023-02-25T08:20:45;7.90;99.90
48206;DHT22;33995;48.202;16.260;2023-02-25T08:23:13;7.90;99.90
48206;DHT22;33995;48.202;16.260;2023-02-25T08:25:40;8.00;99.90
48206;DHT22;33995;48.202;16.260;2023-02-25T08:28:08;7.70;99.90
48206;DHT22;33995;48.202;16.260;2023-02-25T08:30:36;7.90;99.90
48206;DHT22;33995;48.202;16.260;2023-02-25T08:33:04;7.90;99.90
48206;DHT22;33995;48.202;16.260;2023-02-25T08:35:33;8.20;99.90
48206;DHT22;33995;48.202;16.260;2023-02-25T08:38:00;8.20;99.90
48206;DHT22;33995;48.202;16.260;2023-02-25T08:40:28;7.90;99.90
48206;DHT22;33995;48.202;16.260;2023-02-25T08:42:56;7.40;99.90
48206;DHT22;33995;48.202;16.260;2023-02-25T08:45:23;7.60;99.90
48206;DHT22;33995;48.202;16.260;2023-02-25T08:47:51;8.10;99.90
48206;DHT22;33995;48.202;16.260;2023-02-25T08:50:18;8.30;99.90
48206;DHT22;33995;48.202;16.260;2023-02-25T08:52:48;8.20;99.90
48206;DHT22;33995;48.202;16.260;2023-02-25T08:55:19;8.50;99.90
48206;DHT22;33995;48.202;16.260;2023-02-25T08:57:52;8.60;99.90
48206;DHT22;33995;48.202;16.260;2023-02-25T09:00:23;8.40;99.90
48206;DHT22;33995;48.202;16.260;2023-02-25T09:02:52;8.30;99.90
48206;DHT22;33995;48.202;16.260;2023-02-25T09:05:19;8.40;99.90
48206;DHT22;33995;48.202;16.260;2023-02-25T09:07:50;8.50;99.90
48206;DHT22;33995;48.202;16.260;2023-02-25T09:10:18;8.60;99.90
48206;DHT22;33995;48.202;16.260;2023-02-25T09:12:45;8.60;99.90
48206;DHT22;33995;48.202;16.260;2023-02-25T09:15:13;8.60;99.90
48206;DHT22;33995;48.202;16.260;2023-02-25T09:17:40;8.40;99.90
48206;DHT22;33995;48.202;16.260;2023-02-25T09:20:09;8.10;99.90
48206;DHT22;33995;48.202;16.260;2023-02-25T09:22:41;8.60;99.90
48206;DHT22;33995;48.202;16.260;2023-02-25T09:25:08;8.70;99.90
48206;DHT22;33995;48.202;16.260;2023-02-25T09:27:36;8.60;99.90
48206;DHT22;33995;48.202;16.260;2023-02-25T09:30:04;8.60;99.90
48206;DHT22;33995;48.202;16.260;2023-02-25T09:32:32;8.40;99.90
48206;DHT22;33995;48.202;16.260;2023-02-25T09:34:59;8.40;99.90
48206;DHT22;33995;48.202;16.260;2023-02-25T09:37:31;8.70;99.90
48206;DHT22;33995;48.202;16.260;2023-02-25T09:40:00;8.70;99.90
48206;DHT22;33995;48.202;16.260;2023-02-25T09:42:43;8.40;99.90
48206;DHT22;33995;48.202;16.260;2023-02-25T09:45:16;8.10;99.90
48206;DHT22;33995;48.202;16.260;2023-02-25T09:47:56;8.50;99.90
48206;DHT22;33995;48.202;16.260;2023-02-25T09:50:46;8.30;99.90
48206;DHT22;33995;48.202;16.260;2023-02-25T09:53:41;8.60;99.90
48206;DHT22;33995;48.202;16.260;2023-02-25T09:56:15;8.50;99.90
48206;DHT22;33995;48.202;16.260;2023-02-25T09:58:53;8.40;99.90
48206;DHT22;33995;48.202;16.260;2023-02-25T10:01:35;8.40;99.90
48206;DHT22;33995;48.202;16.260;2023-02-25T10:04:20;8.40;99.90
48206;DHT22;33995;48.202;16.260;2023-02-25T10:06:50;8.50;99.90
48206;DHT22;33995;48.202;16.260;2023-02-25T10:09:37;8.50;99.90
48206;DHT22;33995;48.202;16.260;2023-02-25T10:12:26;8.70;99.90
48206;DHT22;33995;48.202;16.260;2023-02-25T10:15:22;9.10;99.90
48206;DHT22;33995;48.202;16.260;2023-02-25T10:23:46;9.30;99.90
48206;DHT22;33995;48.202;16.260;2023-02-25T10:26:28;9.00;99.90
48206;DHT22;33995;48.202;16.260;2023-02-25T10:29:05;9.00;99.90
48206;DHT22;33995;48.202;16.260;2023-02-25T10:31:33;9.70;99.90
48206;DHT22;33995;48.202;16.260;2023-02-25T10:34:22;8.90;99.90
48206;DHT22;33995;48.202;16.260;2023-02-25T10:36:56;9.20;99.90
48206;DHT22;33995;48.202;16.260;2023-02-25T10:39:25;9.40;99.90
48206;DHT22;33995;48.202;16.260;2023-02-25T10:41:53;9.60;99.90
48206;DHT22;33995;48.202;16.260;2023-02-25T10:44:21;9.50;99.90
48206;DHT22;33995;48.202;16.260;2023-02-25T10:47:00;10.70;99.90
48206;DHT22;33995;48.202;16.260;2023-02-25T10:49:30;10.20;99.90
48206;DHT22;33995;48.202;16.260;2023-02-25T10:52:14;9.90;99.90
48206;DHT22;33995;48.202;16.260;2023-02-25T10:54:51;9.60;99.90
48206;DHT22;33995;48.202;16.260;2023-02-25T10:57:26;8.80;99.90
48206;DHT22;33995;48.202;16.260;2023-02-25T11:00:03;8.80;99.90
48206;DHT22;33995;48.202;16.260;2023-02-25T11:02:38;8.30;99.90
48206;DHT22;33995;48.202;16.260;2023-02-25T11:05:34;8.10;99.90
48206;DHT22;33995;48.202;16.260;2023-02-25T11:08:04;8.70;99.90
48206;DHT22;33995;48.202;16.260;2023-02-25T11:10:33;9.10;99.90
48206;DHT22;33995;48.202;16.260;2023-02-25T11:13:02;9.70;99.90
48206;DHT22;33995;48.202;16.260;2023-02-25T11:15:41;10.30;99.90
48206;DHT22;33995;48.202;16.260;2023-02-25T11:20:55;11.00;99.90
48206;DHT22;33995;48.202;16.260;2023-02-25T11:23:39;11.90;99.90
48206;DHT22;33995;48.202;16.260;2023-02-25T11:26:16;11.90;99.90
48206;DHT22;33995;48.202;16.260;2023-02-25T11:28:46;12.30;99.90
48206;DHT22;33995;48.202;16.260;2023-02-25T11:31:24;12.00;99.90
48206;DHT22;33995;48.202;16.260;2023-02-25T11:33:58;13.30;99.90
48206;DHT22;33995;48.202;16.260;2023-02-25T11:36:38;13.70;99.90
48206;DHT22;33995;48.202;16.260;2023-02-25T11:39:26;13.50;99.90
48206;DHT22;33995;48.202;16.260;2023-02-25T11:41:56;13.40;99.00
48206;DHT22;33995;48.202;16.260;2023-02-25T11:44:26;14.70;99.50
48206;DHT22;33995;48.202;16.260;2023-02-25T11:47:43;14.50;98.90
48206;DHT22;33995;48.202;16.260;2023-02-25T11:56:14;14.80;97.60
48206;DHT22;33995;48.202;16.260;2023-02-25T12:21:55;13.80;94.00
48206;DHT22;33995;48.202;16.260;2023-02-25T12:27:35;14.60;97.30
48206;DHT22;33995;48.202;16.260;2023-02-25T12:35:55;12.70;94.90
48206;DHT22;33995;48.202;16.260;2023-02-25T12:41:38;13.00;95.60
48206;DHT22;33995;48.202;16.260;2023-02-25T12:53:04;14.50;95.30
48206;DHT22;33995;48.202;16.260;2023-02-25T12:58:25;14.10;92.90
48206;DHT22;33995;48.202;16.260;2023-02-25T13:01:23;14.80;93.00
48206;DHT22;33995;48.202;16.260;2023-02-25T13:21:25;15.30;90.10
48206;DHT22;33995;48.202;16.260;2023-02-25T13:35:20;13.10;90.70
48206;DHT22;33995;48.202;16.260;2023-02-25T14:29:40;10.80;91.50
48206;DHT22;33995;48.202;16.260;2023-02-25T14:32:53;10.30;92.60
48206;DHT22;33995;48.202;16.260;2023-02-25T14:35:49;9.90;93.40
48206;DHT22;33995;48.202;16.260;2023-02-25T14:38:59;11.30;92.80
48206;DHT22;33995;48.202;16.260;2023-02-25T14:41:51;12.50;91.90
48206;DHT22;33995;48.202;16.260;2023-02-25T14:44:45;13.30;90.70
48206;DHT22;33995;48.202;16.260;2023-02-25T14:55:44;13.40;89.40
48206;DHT22;33995;48.202;16.260;2023-02-25T14:58:29;15.20;88.00
48206;DHT22;33995;48.202;16.260;2023-02-25T15:12:42;19.00;77.70
48206;DHT22;33995;48.202;16.260;2023-02-25T15:20:51;19.50;76.20
48206;DHT22;33995;48.202;16.260;2023-02-25T15:23:41;20.10;76.60
48206;DHT22;33995;48.202;16.260;2023-02-25T15:26:53;20.10;75.60
48206;DHT22;33995;48.202;16.260;2023-02-25T15:32:29;17.10;78.00
48206;DHT22;33995;48.202;16.260;2023-02-25T15:35:14;13.30;86.00
48206;DHT22;33995;48.202;16.260;2023-02-25T15:38:07;11.90;90.40
48206;DHT22;33995;48.202;16.260;2023-02-25T15:40:42;10.60;91.90
48206;DHT22;33995;48.202;16.260;2023-02-25T15:48:36;8.70;95.60
48206;DHT22;33995;48.202;16.260;2023-02-25T15:51:10;8.40;96.30
48206;DHT22;33995;48.202;16.260;2023-02-25T15:53:41;8.20;97.30
48206;DHT22;33995;48.202;16.260;2023-02-25T15:58:51;7.40;98.90
48206;DHT22;33995;48.202;16.260;2023-02-25T16:01:40;7.40;99.30
48206;DHT22;33995;48.202;16.260;2023-02-25T16:04:38;7.40;99.80
48206;DHT22;33995;48.202;16.260;2023-02-25T16:07:12;7.40;99.90
48206;DHT22;33995;48.202;16.260;2023-02-25T16:09:45;7.30;99.90
48206;DHT22;33995;48.202;16.260;2023-02-25T16:12:14;7.30;99.90
48206;DHT22;33995;48.202;16.260;2023-02-25T16:14:46;7.20;99.90
48206;DHT22;33995;48.202;16.260;2023-02-25T16:19:57;6.90;99.90
48206;DHT22;33995;48.202;16.260;2023-02-25T16:22:27;6.90;99.90
48206;DHT22;33995;48.202;16.260;2023-02-25T16:24:57;6.90;99.90
48206;DHT22;33995;48.202;16.260;2023-02-25T16:30:29;6.60;99.90
48206;DHT22;33995;48.202;16.260;2023-02-25T16:36:40;6.60;99.90
48206;DHT22;33995;48.202;16.260;2023-02-25T16:38:57;6.70;99.90
48206;DHT22;33995;48.202;16.260;2023-02-25T16:41:28;6.50;99.90
48206;DHT22;33995;48.202;16.260;2023-02-25T16:44:06;6.50;99.90
48206;DHT22;33995;48.202;16.260;2023-02-25T16:46:36;6.50;99.90
48206;DHT22;33995;48.202;16.260;2023-02-25T16:49:10;6.50;99.90
48206;DHT22;33995;48.202;16.260;2023-02-25T16:51:44;6.40;99.90
48206;DHT22;33995;48.202;16.260;2023-02-25T16:54:18;6.30;99.90
48206;DHT22;33995;48.202;16.260;2023-02-25T16:56:53;6.20;99.90
48206;DHT22;33995;48.202;16.260;2023-02-25T16:59:22;6.10;99.90
48206;DHT22;33995;48.202;16.260;2023-02-25T17:02:01;6.10;99.90
48206;DHT22;33995;48.202;16.260;2023-02-25T17:04:35;6.20;99.90
48206;DHT22;33995;48.202;16.260;2023-02-25T17:09:45;6.10;99.90
48206;DHT22;33995;48.202;16.260;2023-02-25T17:12:18;6.00;99.90
48206;DHT22;33995;48.202;16.260;2023-02-25T17:14:48;6.00;99.90
48206;DHT22;33995;48.202;16.260;2023-02-25T17:17:24;5.70;99.90
48206;DHT22;33995;48.202;16.260;2023-02-25T17:19:54;5.80;99.90
48206;DHT22;33995;48.202;16.260;2023-02-25T17:22:23;5.70;99.90
48206;DHT22;33995;48.202;16.260;2023-02-25T17:24:54;5.70;99.90
48206;DHT22;33995;48.202;16.260;2023-02-25T17:27:27;5.80;99.90
48206;DHT22;33995;48.202;16.260;2023-02-25T17:29:56;5.90;99.90
48206;DHT22;33995;48.202;16.260;2023-02-25T17:32:27;5.50;99.90
48206;DHT22;33995;48.202;16.260;2023-02-25T17:35:00;5.60;99.90
48206;DHT22;33995;48.202;16.260;2023-02-25T17:37:31;5.60;99.90
48206;DHT22;33995;48.202;16.260;2023-02-25T17:40:00;5.60;99.90
48206;DHT22;33995;48.202;16.260;2023-02-25T17:42:34;5.60;99.90
48206;DHT22;33995;48.202;16.260;2023-02-25T17:45:05;5.50;99.90
48206;DHT22;33995;48.202;16.260;2023-02-25T17:47:38;5.60;99.90
48206;DHT22;33995;48.202;16.260;2023-02-25T17:50:29;5.60;99.90
48206;DHT22;33995;48.202;16.260;2023-02-25T17:52:59;5.40;99.90
48206;DHT22;33995;48.202;16.260;2023-02-25T17:55:32;5.40;99.90
48206;DHT22;33995;48.202;16.260;2023-02-25T17:58:02;5.00;99.90
48206;DHT22;33995;48.202;16.260;2023-02-25T18:00:35;4.80;99.90
48206;DHT22;33995;48.202;16.260;2023-02-25T18:03:21;4.90;99.90
48206;DHT22;33995;48.202;16.260;2023-02-25T18:06:36;4.80;99.90
48206;DHT22;33995;48.202;16.260;2023-02-25T18:09:11;4.80;99.90
48206;DHT22;33995;48.202;16.260;2023-02-25T18:11:58;4.50;99.90
48206;DHT22;33995;48.202;16.260;2023-02-25T18:14:36;4.40;99.90
48206;DHT22;33995;48.202;16.260;2023-02-25T18:17:21;4.40;99.90
48206;DHT22;33995;48.202;16.260;2023-02-25T18:19:51;4.30;99.90
48206;DHT22;33995;48.202;16.260;2023-02-25T18:22:49;4.20;99.90
48206;DHT22;33995;48.202;16.260;2023-02-25T18:25:41;4.00;99.90
48206;DHT22;33995;48.202;16.260;2023-02-25T18:28:15;3.90;99.90
48206;DHT22;33995;48.202;16.260;2023-02-25T18:30:47;4.00;99.90
48206;DHT22;33995;48.202;16.260;2023-02-25T18:33:17;4.00;99.90
48206;DHT22;33995;48.202;16.260;2023-02-25T18:35:50;3.90;99.90
48206;DHT22;33995;48.202;16.260;2023-02-25T18:38:21;3.90;99.90
48206;DHT22;33995;48.202;16.260;2023-02-25T18:40:51;4.10;99.90
48206;DHT22;33995;48.202;16.260;2023-02-25T18:43:25;4.00;99.90
48206;DHT22;33995;48.202;16.260;2023-02-25T18:46:01;3.90;99.90
48206;DHT22;33995;48.202;16.260;2023-02-25T18:48:29;3.80;99.90
48206;DHT22;33995;48.202;16.260;2023-02-25T18:51:00;3.70;99.90
48206;DHT22;33995;48.202;16.260;2023-02-25T18:53:29;3.70;99.90
48206;DHT22;33995;48.202;16.260;2023-02-25T18:55:57;3.50;99.90
48206;DHT22;33995;48.202;16.260;2023-02-25T18:58:25;3.70;99.90
48206;DHT22;33995;48.202;16.260;2023-02-25T19:00:55;3.90;99.90
48206;DHT22;33995;48.202;16.260;2023-02-25T19:03:28;4.00;99.90
48206;DHT22;33995;48.202;16.260;2023-02-25T19:05:57;3.80;99.90
48206;DHT22;33995;48.202;16.260;2023-02-25T19:08:26;3.70;99.90
48206;DHT22;33995;48.202;16.260;2023-02-25T19:11:00;3.80;99.90
48206;DHT22;33995;48.202;16.260;2023-02-25T19:13:36;3.80;99.90
48206;DHT22;33995;48.202;16.260;2023-02-25T19:16:06;3.70;99.90
48206;DHT22;33995;48.202;16.260;2023-02-25T19:18:34;3.80;99.90
48206;DHT22;33995;48.202;16.260;2023-02-25T19:21:09;3.60;99.90
48206;DHT22;33995;48.202;16.260;2023-02-25T19:23:38;3.70;99.90
48206;DHT22;33995;48.202;16.260;2023-02-25T19:26:07;3.70;99.90
48206;DHT22;33995;48.202;16.260;2023-02-25T19:28:37;3.50;99.90